createdAt,value
2022-10-24T00:02:30.218Z,3.20
2022-10-24T00:05:23.100Z,3.40
2022-10-24T00:08:20.512Z,3.30
2022-10-24T00:11:12.002Z,4.10
2022-10-24T00:14:09.542Z,3.83
2022-10-24T00:17:01.711Z,3.20
2022-10-24T00:19:50.254Z,2.97
2022-10-24T00:22:38.753Z,3.10
2022-10-24T00:25:33.448Z,3.00
2022-10-24T00:28:24.645Z,3.70
2022-10-24T00:31:17.903Z,3.27
2022-10-24T00:34:09.926Z,3.10
2022-10-24T00:36:58.482Z,3.07
2022-10-24T00:39:48.164Z,3.37
2022-10-24T00:42:37.858Z,3.23
2022-10-24T00:45:46.515Z,3.47
2022-10-24T00:48:36.813Z,3.33
2022-10-24T00:51:28.750Z,3.47
2022-10-24T00:54:18.708Z,3.80
2022-10-24T00:57:23.656Z,3.60
2022-10-24T01:00:15.704Z,4.03
2022-10-24T01:03:14.561Z,2.90
2022-10-24T01:06:21.364Z,3.50
2022-10-24T01:09:16.421Z,4.13
2022-10-24T01:12:23.986Z,3.30
2022-10-24T01:15:15.463Z,2.83
2022-10-24T01:18:07.429Z,3.20
2022-10-24T01:21:11.180Z,3.27
2022-10-24T01:24:07.308Z,3.37
2022-10-24T01:27:19.814Z,3.27
2022-10-24T01:30:13.136Z,3.10
2022-10-24T01:33:15.524Z,3.40
2022-10-24T01:36:11.535Z,3.27
2022-10-24T01:39:05.572Z,3.30
2022-10-24T01:41:54.859Z,3.00
2022-10-24T01:44:47.282Z,3.20
2022-10-24T01:47:41.649Z,3.83
2022-10-24T01:50:38.913Z,3.23
2022-10-24T01:53:29.232Z,3.13
2022-10-24T01:56:22.004Z,3.10
2022-10-24T01:59:32.842Z,3.10
2022-10-24T02:02:25.453Z,3.03
2022-10-24T02:05:23.688Z,3.17
2022-10-24T02:08:18.091Z,3.13
2022-10-24T02:11:17.224Z,3.20
2022-10-24T02:14:09.014Z,3.60
2022-10-24T02:16:57.968Z,3.37
2022-10-24T02:19:50.809Z,3.60
2022-10-24T02:22:51.013Z,3.43
2022-10-24T02:25:43.071Z,3.33
2022-10-24T02:28:34.965Z,3.30
2022-10-24T02:31:25.662Z,3.37
2022-10-24T02:34:18.701Z,3.30
2022-10-24T02:37:10.757Z,3.40
2022-10-24T02:40:04.297Z,3.80
2022-10-24T02:43:00.157Z,3.40
2022-10-24T02:45:55.631Z,3.00
2022-10-24T02:48:49.997Z,3.13
2022-10-24T02:51:39.858Z,3.50
2022-10-24T02:54:37.214Z,3.37
2022-10-24T02:57:33.577Z,3.07
2022-10-24T03:00:25.428Z,2.93
2022-10-24T03:03:15.904Z,3.37
2022-10-24T03:06:04.388Z,3.43
2022-10-24T03:08:52.889Z,3.50
2022-10-24T03:11:44.534Z,3.77
2022-10-24T03:14:40.225Z,3.67
2022-10-24T03:17:32.764Z,3.50
2022-10-24T03:20:26.405Z,3.37
2022-10-24T03:23:19.538Z,3.50
2022-10-24T03:26:09.970Z,3.60
2022-10-24T03:29:03.261Z,3.80
2022-10-24T03:31:53.099Z,3.50
2022-10-24T03:34:41.632Z,3.20
2022-10-24T03:37:31.961Z,3.90
2022-10-24T03:40:24.896Z,3.87
2022-10-24T03:43:17.238Z,3.83
2022-10-24T03:46:05.814Z,4.30
2022-10-24T03:48:55.742Z,3.80
2022-10-24T03:51:44.266Z,4.23
2022-10-24T03:54:37.474Z,3.67
2022-10-24T03:57:30.809Z,4.10
2022-10-24T04:00:24.360Z,3.73
2022-10-24T04:03:14.916Z,3.90
2022-10-24T04:06:07.753Z,3.63
2022-10-24T04:09:03.622Z,3.90
2022-10-24T04:11:53.420Z,4.30
2022-10-24T04:14:47.257Z,4.10
2022-10-24T04:17:35.744Z,4.20
2022-10-24T04:20:30.967Z,3.87
2022-10-24T04:23:23.331Z,4.10
2022-10-24T04:26:15.297Z,3.83
2022-10-24T04:29:03.855Z,3.80
2022-10-24T04:32:00.958Z,3.70
2022-10-24T04:34:52.590Z,3.83
2022-10-24T04:37:42.718Z,3.90
2022-10-24T04:40:36.667Z,3.80
2022-10-24T04:43:30.620Z,4.53
2022-10-24T04:46:20.286Z,3.70
2022-10-24T04:49:13.088Z,4.17
2022-10-24T04:52:05.290Z,4.43
2022-10-24T04:54:56.617Z,3.90
2022-10-24T04:57:54.998Z,4.37
2022-10-24T05:00:50.967Z,3.70
2022-10-24T05:03:39.463Z,4.13
2022-10-24T05:06:30.285Z,4.23
2022-10-24T05:09:25.389Z,4.07
2022-10-24T05:12:15.841Z,4.30
2022-10-24T05:15:06.184Z,4.70
2022-10-24T05:17:57.688Z,3.77
2022-10-24T05:20:50.978Z,3.80
2022-10-24T05:23:39.479Z,3.87
2022-10-24T05:26:28.549Z,4.43
2022-10-24T05:29:17.077Z,3.90
2022-10-24T05:32:07.170Z,4.43
2022-10-24T05:34:55.687Z,4.00
2022-10-24T05:37:44.561Z,4.30
2022-10-24T05:40:33.113Z,4.03
2022-10-24T05:43:21.593Z,4.40
2022-10-24T05:46:10.156Z,4.00
2022-10-24T05:49:00.090Z,3.80
2022-10-24T05:51:48.731Z,4.50
2022-10-24T05:54:48.625Z,3.60
2022-10-24T05:57:46.152Z,4.17
2022-10-24T06:00:35.028Z,3.87
2022-10-24T06:03:23.560Z,4.17
2022-10-24T06:06:13.425Z,4.30
2022-10-24T06:09:03.045Z,4.10
2022-10-24T06:11:51.608Z,3.87
2022-10-24T06:14:40.437Z,4.53
2022-10-24T06:17:29.201Z,4.27
2022-10-24T06:20:17.831Z,4.53
2022-10-24T06:23:07.737Z,4.03
2022-10-24T06:25:56.372Z,3.60
2022-10-24T06:28:44.915Z,4.47
2022-10-24T06:31:35.570Z,4.10
2022-10-24T06:34:24.152Z,4.23
2022-10-24T06:37:12.694Z,4.87
2022-10-24T06:40:02.606Z,4.30
2022-10-24T06:42:51.145Z,4.07
2022-10-24T06:45:40.053Z,4.30
2022-10-24T06:48:28.569Z,4.37
2022-10-24T06:51:17.325Z,4.40
2022-10-24T06:54:05.914Z,4.20
2022-10-24T06:56:55.827Z,4.37
2022-10-24T06:59:44.890Z,4.20
2022-10-24T07:02:33.494Z,4.47
2022-10-24T07:05:22.165Z,5.43
2022-10-24T07:08:10.958Z,4.07
2022-10-24T07:10:59.508Z,5.43
2022-10-24T07:13:49.644Z,4.30
2022-10-24T07:16:38.628Z,3.80
2022-10-24T07:19:30.983Z,3.97
2022-10-24T07:22:21.354Z,3.80
2022-10-24T07:25:10.415Z,4.33
2022-10-24T07:27:58.995Z,4.17
2022-10-24T07:30:48.905Z,4.13
2022-10-24T07:33:39.208Z,4.37
2022-10-24T07:36:29.957Z,4.23
2022-10-24T07:39:18.475Z,4.10
2022-10-24T07:42:08.900Z,4.10
2022-10-24T07:44:57.420Z,4.27
2022-10-24T07:47:48.431Z,3.67
2022-10-24T07:50:37.208Z,4.40
2022-10-24T07:53:26.112Z,3.70
2022-10-24T07:56:15.652Z,4.83
2022-10-24T07:59:09.227Z,4.73
2022-10-24T08:01:58.223Z,4.13
2022-10-24T08:04:48.161Z,3.87
2022-10-24T08:07:36.943Z,4.73
2022-10-24T08:10:25.585Z,3.97
2022-10-24T08:13:14.103Z,4.30
2022-10-24T08:16:03.202Z,3.90
2022-10-24T08:18:52.548Z,3.90
2022-10-24T08:21:42.543Z,3.83
2022-10-24T08:24:31.105Z,4.20
2022-10-24T08:27:19.645Z,4.40
2022-10-24T08:30:11.482Z,4.07
2022-10-24T08:33:00.019Z,4.87
2022-10-24T08:35:48.662Z,4.33
2022-10-24T08:38:38.523Z,3.97
2022-10-24T08:41:29.112Z,4.50
2022-10-24T08:44:21.366Z,4.20
2022-10-24T08:47:14.994Z,4.10
2022-10-24T08:50:06.210Z,4.10
2022-10-24T08:52:59.901Z,3.37
2022-10-24T08:55:53.412Z,3.60
2022-10-24T08:58:44.604Z,3.40
2022-10-24T09:01:34.585Z,3.40
2022-10-24T09:04:26.897Z,3.30
2022-10-24T09:07:17.612Z,2.83
2022-10-24T09:10:08.026Z,2.70
2022-10-24T09:12:57.946Z,2.87
2022-10-24T09:15:47.220Z,2.83
2022-10-24T09:18:38.279Z,3.57
2022-10-24T09:21:27.232Z,3.27
2022-10-24T09:24:21.190Z,3.10
2022-10-24T09:27:13.815Z,3.50
2022-10-24T09:30:06.155Z,2.77
2022-10-24T09:32:55.591Z,3.20
2022-10-24T09:35:44.469Z,2.80
2022-10-24T09:38:34.377Z,2.47
2022-10-24T09:41:24.425Z,2.60
2022-10-24T09:44:29.274Z,2.43
2022-10-24T09:47:26.777Z,2.90
2022-10-24T09:50:21.096Z,2.43
2022-10-24T09:53:22.410Z,2.70
2022-10-24T09:56:11.791Z,3.33
2022-10-24T09:59:18.873Z,2.83
2022-10-24T10:02:19.176Z,2.27
2022-10-24T10:05:18.105Z,2.43
2022-10-24T10:08:11.552Z,3.13
2022-10-24T10:11:04.946Z,2.43
2022-10-24T10:13:55.309Z,2.90
2022-10-24T10:16:44.034Z,2.70
2022-10-24T10:19:34.125Z,2.93
2022-10-24T10:22:25.616Z,2.53
2022-10-24T10:25:29.424Z,2.20
2022-10-24T10:28:21.737Z,2.70
2022-10-24T10:31:11.370Z,2.20
2022-10-24T10:34:07.232Z,2.50
2022-10-24T10:37:03.697Z,2.37
2022-10-24T10:40:03.351Z,3.27
2022-10-24T10:42:58.276Z,2.70
2022-10-24T10:45:47.809Z,2.10
2022-10-24T10:48:42.285Z,2.40
2022-10-24T10:51:37.450Z,2.50
2022-10-24T10:54:34.538Z,2.23
2022-10-24T10:57:29.103Z,1.90
2022-10-24T11:00:19.715Z,2.33
2022-10-24T11:03:16.241Z,2.03
2022-10-24T11:06:14.594Z,2.17
2022-10-24T11:09:23.396Z,1.90
2022-10-24T11:12:14.637Z,2.10
2022-10-24T11:15:08.405Z,2.37
2022-10-24T11:18:00.517Z,2.27
2022-10-24T11:20:53.061Z,2.53
2022-10-24T11:26:38.813Z,1.87
2022-10-24T11:29:31.430Z,1.87
2022-10-24T11:32:25.695Z,2.10
2022-10-24T11:35:18.942Z,1.57
2022-10-24T11:38:09.847Z,2.00
2022-10-24T11:41:01.167Z,1.70
2022-10-24T11:43:51.447Z,1.90
2022-10-24T11:46:42.832Z,1.73
2022-10-24T11:49:34.817Z,1.93
2022-10-24T11:52:25.745Z,1.57
2022-10-24T11:55:18.313Z,1.60
2022-10-24T11:58:08.511Z,1.70
2022-10-24T12:01:15.089Z,1.90
2022-10-24T12:04:20.541Z,1.87
2022-10-24T12:07:32.641Z,1.90
2022-10-24T12:10:28.011Z,1.80
2022-10-24T12:13:34.956Z,1.60
2022-10-24T12:16:29.155Z,1.57
2022-10-24T12:19:19.877Z,1.87
2022-10-24T12:22:09.077Z,1.60
2022-10-24T12:25:06.641Z,1.60
2022-10-24T12:27:56.275Z,1.70
2022-10-24T12:30:44.927Z,1.43
2022-10-24T12:33:33.480Z,1.67
2022-10-24T12:36:44.124Z,1.50
2022-10-24T12:39:35.278Z,1.67
2022-10-24T12:42:38.706Z,1.60
2022-10-24T12:45:30.319Z,1.80
2022-10-24T12:48:35.746Z,1.77
2022-10-24T12:51:29.985Z,1.70
2022-10-24T12:54:21.215Z,1.43
2022-10-24T12:57:27.554Z,1.60
2022-10-24T13:00:25.481Z,1.47
2022-10-24T13:03:18.228Z,1.50
2022-10-24T13:06:08.461Z,1.57
2022-10-24T13:09:04.596Z,1.80
2022-10-24T13:11:58.755Z,1.60
2022-10-24T13:15:05.226Z,1.90
2022-10-24T13:18:01.809Z,1.70
2022-10-24T13:20:51.098Z,1.80
2022-10-24T13:23:39.611Z,1.80
2022-10-24T13:26:38.296Z,2.00
2022-10-24T13:29:45.017Z,1.90
2022-10-24T13:32:35.750Z,1.90
2022-10-24T13:35:26.164Z,1.60
2022-10-24T13:38:15.926Z,2.00
2022-10-24T13:41:05.102Z,1.83
2022-10-24T13:43:54.826Z,1.93
2022-10-24T13:46:48.007Z,1.77
2022-10-24T13:49:42.014Z,1.77
2022-10-24T13:52:34.606Z,1.90
2022-10-24T13:55:25.346Z,1.80
2022-10-24T13:58:15.400Z,2.63
2022-10-24T14:01:06.447Z,1.80
2022-10-24T14:03:56.051Z,1.63
2022-10-24T14:06:44.572Z,1.80
2022-10-24T14:09:40.206Z,1.90
2022-10-24T14:12:33.095Z,2.00
2022-10-24T14:15:22.937Z,1.80
2022-10-24T14:18:14.696Z,1.70
2022-10-24T14:21:05.438Z,1.50
2022-10-24T14:23:58.146Z,1.53
2022-10-24T14:26:51.456Z,1.60
2022-10-24T14:29:40.174Z,1.73
2022-10-24T14:32:32.484Z,1.77
2022-10-24T14:35:22.777Z,1.97
2022-10-24T14:38:15.610Z,1.70
2022-10-24T14:41:09.582Z,1.70
2022-10-24T14:44:00.366Z,1.60
2022-10-24T14:46:49.359Z,1.50
2022-10-24T14:49:38.419Z,1.60
2022-10-24T14:52:28.461Z,1.77
2022-10-24T14:55:20.644Z,1.60
2022-10-24T14:58:22.112Z,1.77
2022-10-24T15:01:17.659Z,1.90
2022-10-24T15:04:07.049Z,1.80
2022-10-24T15:06:57.206Z,2.00
2022-10-24T15:09:53.288Z,1.70
2022-10-24T15:12:42.820Z,1.73
2022-10-24T15:15:34.452Z,1.60
2022-10-24T15:18:26.029Z,2.00
2022-10-24T15:21:15.570Z,1.93
2022-10-24T15:24:04.248Z,1.93
2022-10-24T15:26:53.205Z,1.73
2022-10-24T15:29:42.035Z,1.97
2022-10-24T15:32:30.578Z,1.83
2022-10-24T15:35:20.589Z,2.47
2022-10-24T15:38:14.020Z,1.83
2022-10-24T15:41:02.597Z,1.70
2022-10-24T15:43:51.321Z,1.97
2022-10-24T15:46:39.838Z,1.77
2022-10-24T15:49:28.916Z,2.10
2022-10-24T15:52:19.058Z,1.83
2022-10-24T15:55:07.929Z,1.87
2022-10-24T15:57:59.717Z,2.00
2022-10-24T16:00:48.312Z,2.37
2022-10-24T16:03:39.077Z,1.67
2022-10-24T16:06:27.947Z,2.20
2022-10-24T16:09:18.876Z,1.80
2022-10-24T16:12:07.491Z,1.97
2022-10-24T16:14:56.047Z,1.90
2022-10-24T16:17:44.813Z,2.20
2022-10-24T16:20:33.949Z,2.13
2022-10-24T16:23:22.538Z,2.17
2022-10-24T16:26:12.460Z,2.10
2022-10-24T16:29:01.091Z,2.13
2022-10-24T16:31:50.768Z,2.30
2022-10-24T16:34:39.310Z,1.97
2022-10-24T16:37:27.939Z,1.83
2022-10-24T16:40:16.556Z,2.00
2022-10-24T16:43:06.738Z,1.90
2022-10-24T16:45:59.124Z,2.07
2022-10-24T16:48:48.074Z,1.90
2022-10-24T16:51:39.275Z,2.57
2022-10-24T16:54:31.656Z,2.63
2022-10-24T16:57:20.299Z,2.63
2022-10-24T17:00:14.191Z,2.00
2022-10-24T17:03:02.764Z,2.03
2022-10-24T17:05:52.553Z,2.50
2022-10-24T17:08:41.126Z,2.10
2022-10-24T17:11:46.293Z,1.57
2022-10-24T17:14:36.348Z,2.03
2022-10-24T17:17:28.339Z,2.00
2022-10-24T17:20:17.385Z,1.90
2022-10-24T17:23:06.670Z,2.23
2022-10-24T17:25:56.757Z,1.33
2022-10-24T17:28:45.986Z,1.80
2022-10-24T17:31:34.673Z,2.67
2022-10-24T17:34:25.143Z,1.67
2022-10-24T17:37:19.874Z,1.87
2022-10-24T17:40:14.424Z,1.50
2022-10-24T17:43:03.331Z,2.40
2022-10-24T17:45:52.068Z,1.70
2022-10-24T17:48:40.662Z,1.80
2022-10-24T17:51:32.376Z,2.37
2022-10-24T17:54:22.859Z,1.80
2022-10-24T17:57:11.346Z,1.90
2022-10-24T18:00:00.848Z,1.80
2022-10-24T18:02:49.930Z,2.20
2022-10-24T18:05:38.996Z,2.07
2022-10-24T18:08:29.009Z,1.77
2022-10-24T18:11:17.536Z,1.67
2022-10-24T18:14:05.996Z,1.70
2022-10-24T18:16:54.527Z,2.03
2022-10-24T18:19:43.017Z,1.70
2022-10-24T18:22:31.869Z,1.80
2022-10-24T18:25:23.190Z,1.60
2022-10-24T18:28:12.743Z,1.73
2022-10-24T18:31:01.238Z,2.00
2022-10-24T18:33:50.163Z,2.40
2022-10-24T18:36:38.733Z,2.23
2022-10-24T18:39:36.045Z,2.10
2022-10-24T18:42:27.951Z,1.87
2022-10-24T18:45:19.948Z,2.07
2022-10-24T18:48:12.063Z,1.90
2022-10-24T18:51:00.658Z,1.70
2022-10-24T18:53:49.438Z,1.70
2022-10-24T18:56:38.130Z,2.00
2022-10-24T18:59:28.423Z,1.73
2022-10-24T19:02:22.135Z,2.20
2022-10-24T19:05:18.374Z,2.00
2022-10-24T19:08:07.397Z,1.77
2022-10-24T19:10:56.908Z,1.90
2022-10-24T19:13:45.753Z,2.20
2022-10-24T19:16:36.073Z,1.80
2022-10-24T19:19:26.875Z,2.30
2022-10-24T19:22:15.410Z,2.60
2022-10-24T19:25:04.921Z,2.20
2022-10-24T19:30:48.261Z,2.10
2022-10-24T19:33:52.232Z,2.00
2022-10-24T19:36:54.975Z,2.13
2022-10-24T19:39:57.480Z,1.93
2022-10-24T19:42:48.831Z,2.00
2022-10-24T19:45:39.534Z,2.23
2022-10-24T19:48:43.684Z,1.90
2022-10-24T19:51:34.832Z,2.63
2022-10-24T19:54:26.037Z,2.93
2022-10-24T19:57:16.989Z,3.20
2022-10-24T20:00:07.534Z,2.30
2022-10-24T20:02:58.134Z,2.40
2022-10-24T20:05:52.899Z,2.40
2022-10-24T20:08:52.502Z,2.50
2022-10-24T20:11:48.479Z,2.90
2022-10-24T20:14:37.043Z,2.93
2022-10-24T20:17:27.673Z,2.47
2022-10-24T20:20:16.189Z,2.80
2022-10-24T20:23:04.659Z,2.43
2022-10-24T20:26:03.565Z,3.00
2022-10-24T20:28:52.874Z,3.07
2022-10-24T20:31:44.242Z,2.90
2022-10-24T20:34:40.894Z,2.47
2022-10-24T20:37:30.640Z,3.17
2022-10-24T20:40:20.051Z,2.70
2022-10-24T20:43:11.041Z,3.00
2022-10-24T20:45:59.990Z,3.00
2022-10-24T20:48:50.668Z,2.67
2022-10-24T20:51:42.931Z,2.50
2022-10-24T20:54:34.290Z,2.60
2022-10-24T20:57:24.453Z,4.50
2022-10-24T21:00:17.284Z,2.90
2022-10-24T21:03:11.873Z,2.60
2022-10-24T21:06:01.460Z,2.77
2022-10-24T21:08:54.629Z,3.27
2022-10-24T21:11:52.588Z,3.57
2022-10-24T21:14:41.077Z,2.90
2022-10-24T21:17:32.033Z,2.60
2022-10-24T21:20:23.283Z,3.40
2022-10-24T21:23:16.338Z,3.00
2022-10-24T21:26:05.991Z,3.20
2022-10-24T21:28:59.469Z,3.40
2022-10-24T21:32:07.948Z,2.83
2022-10-24T21:35:05.669Z,3.60
2022-10-24T21:37:57.192Z,2.90
2022-10-24T21:40:50.161Z,3.00
2022-10-24T21:43:39.505Z,2.97
2022-10-24T21:46:29.186Z,3.20
2022-10-24T21:49:17.765Z,3.30
2022-10-24T21:52:07.739Z,3.60
2022-10-24T21:54:58.804Z,3.60
2022-10-24T21:57:50.772Z,3.73
2022-10-24T22:00:40.384Z,3.50
2022-10-24T22:03:35.036Z,3.60
2022-10-24T22:06:23.757Z,3.73
2022-10-24T22:09:16.946Z,4.40
2022-10-24T22:12:05.662Z,3.43
2022-10-24T22:15:06.942Z,3.33
2022-10-24T22:18:04.507Z,3.60
2022-10-24T22:21:03.648Z,3.30
2022-10-24T22:23:52.190Z,3.20
2022-10-24T22:26:49.924Z,3.37
2022-10-24T22:29:40.109Z,3.17
2022-10-24T22:32:28.776Z,2.90
2022-10-24T22:35:22.605Z,3.00
2022-10-24T22:38:23.819Z,3.20
2022-10-24T22:41:13.884Z,2.80
2022-10-24T22:44:06.984Z,2.90
2022-10-24T22:47:03.399Z,3.03
2022-10-24T22:50:44.784Z,2.80
2022-10-24T22:53:10.870Z,3.00
2022-10-24T22:56:17.664Z,3.20
2022-10-24T22:59:11.861Z,3.07
2022-10-24T23:02:08.852Z,3.23
2022-10-24T23:05:05.086Z,2.10
2022-10-24T23:08:04.048Z,3.17
2022-10-24T23:10:52.725Z,2.60
2022-10-24T23:13:46.494Z,2.90
2022-10-24T23:16:41.816Z,2.80
2022-10-24T23:19:32.724Z,2.90
2022-10-24T23:22:27.401Z,3.57
2022-10-24T23:25:18.061Z,2.77
2022-10-24T23:28:17.769Z,3.20
2022-10-24T23:31:09.057Z,3.00
2022-10-24T23:34:04.012Z,3.10
2022-10-24T23:36:56.035Z,2.97
2022-10-24T23:39:44.829Z,3.10
2022-10-24T23:42:33.505Z,2.60
2022-10-24T23:45:26.799Z,3.37
2022-10-24T23:48:25.348Z,3.20
2022-10-24T23:51:17.152Z,3.10
2022-10-24T23:54:08.878Z,3.37
2022-10-24T23:57:00.447Z,2.67
2022-10-24T23:59:48.933Z,2.43
